Terminal Aerodrome Forecast
Issued by NWS Bismarck, ND

Home | Current Version | Previous Version | Text Only | Print | Product List | Glossary On
Versions: 1 2 3 4 5 6 7 8 9 10 11 12 13 14 15 16 17 18 19 20
213
FTUS43 KBIS 312318 AAB
TAFISN
TAF AMD
KISN 312318Z 3123/0118 33018G26KT P6SM -SHRA SCT025 OVC040
     FM010200 34015KT P6SM VCSH OVC030
     FM010500 32012KT P6SM BKN020
     FM011000 33010KT P6SM SCT035=

USA.gov is the U.S. government's official web portal to all federal, state and local government web resources and services.